< < Back
Terminal Aerodrome Forecast


Current Version              Previous Versions:   1  2  3  4  5  6  7  8  9  

Terminal Aerodrome Forecast

841
FTUS42 KTAE 242300
TAFVLD
TAF
KVLD 242334Z 2500/2524 00000KT P6SM SKC
     FM251900 21008G14KT P6SM SCT050 SCT120=



Latest METAR

290
SAUS70 KWBC 251600 RRB
MTRVLD
METAR KVLD 251553Z VRB03KT 10SM CLR 12/01 A3006 RMK AO2 SLP189
T01220011


USA.gov is the U.S. government's official web portal to all federal, state and local government web resources and services.